sensor_id;sensor_type;location;lat;lon;timestamp;P1;durP1;ratioP1;P2;durP2;ratioP2
15254;SDS011;7730;49.610;11.136;2023-08-08T00:02:05;4.32;;;2.20;;
15254;SDS011;7730;49.610;11.136;2023-08-08T00:04:32;3.45;;;2.03;;
15254;SDS011;7730;49.610;11.136;2023-08-08T00:06:59;3.63;;;2.20;;
15254;SDS011;7730;49.610;11.136;2023-08-08T00:09:26;5.65;;;2.30;;
15254;SDS011;7730;49.610;11.136;2023-08-08T00:11:53;3.67;;;2.10;;
15254;SDS011;7730;49.610;11.136;2023-08-08T00:14:23;4.18;;;2.13;;
15254;SDS011;7730;49.610;11.136;2023-08-08T00:16:50;6.75;;;2.30;;
15254;SDS011;7730;49.610;11.136;2023-08-08T00:19:17;7.10;;;2.40;;
15254;SDS011;7730;49.610;11.136;2023-08-08T00:21:44;6.50;;;2.67;;
15254;SDS011;7730;49.610;11.136;2023-08-08T00:24:11;6.70;;;2.80;;
15254;SDS011;7730;49.610;11.136;2023-08-08T00:26:38;4.20;;;2.30;;
15254;SDS011;7730;49.610;11.136;2023-08-08T00:29:05;6.57;;;2.45;;
15254;SDS011;7730;49.610;11.136;2023-08-08T00:31:34;6.13;;;2.47;;
15254;SDS011;7730;49.610;11.136;2023-08-08T00:34:01;5.25;;;2.38;;
15254;SDS011;7730;49.610;11.136;2023-08-08T00:36:28;6.20;;;2.20;;
15254;SDS011;7730;49.610;11.136;2023-08-08T00:38:55;7.07;;;2.35;;
15254;SDS011;7730;49.610;11.136;2023-08-08T00:41:22;4.10;;;2.40;;
15254;SDS011;7730;49.610;11.136;2023-08-08T00:43:49;5.32;;;2.17;;
15254;SDS011;7730;49.610;11.136;2023-08-08T00:46:16;4.93;;;2.20;;
15254;SDS011;7730;49.610;11.136;2023-08-08T00:48:45;4.35;;;2.30;;
15254;SDS011;7730;49.610;11.136;2023-08-08T00:51:12;4.93;;;1.90;;
15254;SDS011;7730;49.610;11.136;2023-08-08T00:53:39;7.05;;;2.30;;
15254;SDS011;7730;49.610;11.136;2023-08-08T00:56:06;4.30;;;2.30;;
15254;SDS011;7730;49.610;11.136;2023-08-08T00:58:33;7.97;;;2.50;;
15254;SDS011;7730;49.610;11.136;2023-08-08T01:01:01;6.75;;;2.53;;
15254;SDS011;7730;49.610;11.136;2023-08-08T01:03:28;5.60;;;2.47;;
15254;SDS011;7730;49.610;11.136;2023-08-08T01:05:58;6.22;;;2.50;;
15254;SDS011;7730;49.610;11.136;2023-08-08T01:08:27;7.78;;;2.70;;
15254;SDS011;7730;49.610;11.136;2023-08-08T01:10:55;4.07;;;2.30;;
15254;SDS011;7730;49.610;11.136;2023-08-08T01:13:23;7.55;;;2.67;;
15254;SDS011;7730;49.610;11.136;2023-08-08T01:15:52;5.25;;;2.50;;
15254;SDS011;7730;49.610;11.136;2023-08-08T01:18:20;4.93;;;2.53;;
15254;SDS011;7730;49.610;11.136;2023-08-08T01:20:48;5.60;;;2.70;;
15254;SDS011;7730;49.610;11.136;2023-08-08T01:23:19;8.20;;;2.58;;
15254;SDS011;7730;49.610;11.136;2023-08-08T01:25:47;4.22;;;2.30;;
15254;SDS011;7730;49.610;11.136;2023-08-08T01:28:14;5.35;;;2.47;;
15254;SDS011;7730;49.610;11.136;2023-08-08T01:30:43;5.05;;;2.60;;
15254;SDS011;7730;49.610;11.136;2023-08-08T01:33:10;6.15;;;2.92;;
15254;SDS011;7730;49.610;11.136;2023-08-08T01:35:37;7.80;;;2.70;;
15254;SDS011;7730;49.610;11.136;2023-08-08T01:38:08;6.35;;;2.72;;
15254;SDS011;7730;49.610;11.136;2023-08-08T01:40:35;5.57;;;2.80;;
15254;SDS011;7730;49.610;11.136;2023-08-08T01:43:04;7.55;;;2.70;;
15254;SDS011;7730;49.610;11.136;2023-08-08T01:45:32;6.85;;;2.70;;
15254;SDS011;7730;49.610;11.136;2023-08-08T01:47:59;6.13;;;2.40;;
15254;SDS011;7730;49.610;11.136;2023-08-08T01:50:27;6.60;;;2.53;;
15254;SDS011;7730;49.610;11.136;2023-08-08T01:52:54;6.82;;;2.40;;
15254;SDS011;7730;49.610;11.136;2023-08-08T01:55:21;4.68;;;2.50;;
15254;SDS011;7730;49.610;11.136;2023-08-08T01:57:48;5.00;;;2.70;;
15254;SDS011;7730;49.610;11.136;2023-08-08T02:00:17;5.28;;;2.67;;
15254;SDS011;7730;49.610;11.136;2023-08-08T02:02:44;6.80;;;3.05;;
15254;SDS011;7730;49.610;11.136;2023-08-08T02:05:11;5.15;;;2.70;;
15254;SDS011;7730;49.610;11.136;2023-08-08T02:07:38;6.63;;;2.75;;
15254;SDS011;7730;49.610;11.136;2023-08-08T02:10:05;5.57;;;2.50;;
15254;SDS011;7730;49.610;11.136;2023-08-08T02:12:33;4.45;;;2.25;;
15254;SDS011;7730;49.610;11.136;2023-08-08T02:15:00;5.13;;;2.30;;
15254;SDS011;7730;49.610;11.136;2023-08-08T02:17:28;6.65;;;2.75;;
15254;SDS011;7730;49.610;11.136;2023-08-08T02:19:55;4.88;;;2.60;;
15254;SDS011;7730;49.610;11.136;2023-08-08T02:22:22;8.20;;;2.50;;
15254;SDS011;7730;49.610;11.136;2023-08-08T02:24:49;6.88;;;2.45;;
15254;SDS011;7730;49.610;11.136;2023-08-08T02:27:16;6.55;;;2.58;;
15254;SDS011;7730;49.610;11.136;2023-08-08T02:29:43;5.68;;;2.50;;
15254;SDS011;7730;49.610;11.136;2023-08-08T02:32:10;5.22;;;2.47;;
15254;SDS011;7730;49.610;11.136;2023-08-08T02:34:39;6.00;;;2.40;;
15254;SDS011;7730;49.610;11.136;2023-08-08T02:37:07;5.60;;;2.38;;
15254;SDS011;7730;49.610;11.136;2023-08-08T02:39:34;5.07;;;2.40;;
15254;SDS011;7730;49.610;11.136;2023-08-08T02:42:01;3.97;;;2.50;;
15254;SDS011;7730;49.610;11.136;2023-08-08T02:44:28;9.50;;;3.55;;
15254;SDS011;7730;49.610;11.136;2023-08-08T02:46:55;9.05;;;3.88;;
15254;SDS011;7730;49.610;11.136;2023-08-08T02:49:22;7.13;;;3.53;;
15254;SDS011;7730;49.610;11.136;2023-08-08T02:51:51;3.85;;;2.33;;
15254;SDS011;7730;49.610;11.136;2023-08-08T02:54:18;5.22;;;2.33;;
15254;SDS011;7730;49.610;11.136;2023-08-08T02:56:45;4.43;;;2.67;;
15254;SDS011;7730;49.610;11.136;2023-08-08T02:59:12;7.45;;;2.50;;
15254;SDS011;7730;49.610;11.136;2023-08-08T03:01:39;5.53;;;2.35;;
15254;SDS011;7730;49.610;11.136;2023-08-08T03:04:06;5.43;;;2.53;;
15254;SDS011;7730;49.610;11.136;2023-08-08T03:06:33;7.07;;;2.53;;
15254;SDS011;7730;49.610;11.136;2023-08-08T03:09:01;4.68;;;2.40;;
15254;SDS011;7730;49.610;11.136;2023-08-08T03:11:28;5.82;;;2.50;;
15254;SDS011;7730;49.610;11.136;2023-08-08T03:13:55;5.32;;;2.50;;
15254;SDS011;7730;49.610;11.136;2023-08-08T03:16:22;6.03;;;2.60;;
15254;SDS011;7730;49.610;11.136;2023-08-08T03:18:49;6.60;;;2.50;;
15254;SDS011;7730;49.610;11.136;2023-08-08T03:21:16;6.38;;;2.38;;
15254;SDS011;7730;49.610;11.136;2023-08-08T03:23:44;7.68;;;2.85;;
15254;SDS011;7730;49.610;11.136;2023-08-08T03:26:12;4.35;;;2.45;;
15254;SDS011;7730;49.610;11.136;2023-08-08T03:28:39;5.55;;;2.53;;
15254;SDS011;7730;49.610;11.136;2023-08-08T03:31:06;4.47;;;2.45;;
15254;SDS011;7730;49.610;11.136;2023-08-08T03:33:33;7.72;;;2.88;;
15254;SDS011;7730;49.610;11.136;2023-08-08T03:36:00;7.57;;;2.63;;
15254;SDS011;7730;49.610;11.136;2023-08-08T03:38:27;5.18;;;2.60;;
15254;SDS011;7730;49.610;11.136;2023-08-08T03:40:54;5.68;;;2.50;;
15254;SDS011;7730;49.610;11.136;2023-08-08T03:43:22;7.28;;;2.60;;
15254;SDS011;7730;49.610;11.136;2023-08-08T03:45:49;5.10;;;2.20;;
15254;SDS011;7730;49.610;11.136;2023-08-08T03:48:16;4.40;;;2.17;;
15254;SDS011;7730;49.610;11.136;2023-08-08T03:50:43;2.95;;;2.13;;
15254;SDS011;7730;49.610;11.136;2023-08-08T03:53:11;6.70;;;2.58;;
15254;SDS011;7730;49.610;11.136;2023-08-08T03:55:38;4.90;;;2.15;;
15254;SDS011;7730;49.610;11.136;2023-08-08T03:58:05;5.28;;;2.40;;
15254;SDS011;7730;49.610;11.136;2023-08-08T04:00:33;4.35;;;2.20;;
15254;SDS011;7730;49.610;11.136;2023-08-08T04:03:01;3.88;;;2.00;;
15254;SDS011;7730;49.610;11.136;2023-08-08T04:05:28;4.03;;;2.20;;
15254;SDS011;7730;49.610;11.136;2023-08-08T04:07:55;4.03;;;2.10;;
15254;SDS011;7730;49.610;11.136;2023-08-08T04:10:22;4.57;;;2.40;;
15254;SDS011;7730;49.610;11.136;2023-08-08T04:12:49;4.20;;;2.35;;
15254;SDS011;7730;49.610;11.136;2023-08-08T04:15:16;5.95;;;2.50;;
15254;SDS011;7730;49.610;11.136;2023-08-08T04:17:44;4.50;;;2.33;;
15254;SDS011;7730;49.610;11.136;2023-08-08T04:20:11;4.70;;;2.10;;
15254;SDS011;7730;49.610;11.136;2023-08-08T04:22:39;4.65;;;2.20;;
15254;SDS011;7730;49.610;11.136;2023-08-08T04:25:06;5.18;;;2.28;;
15254;SDS011;7730;49.610;11.136;2023-08-08T04:27:34;5.45;;;2.42;;
15254;SDS011;7730;49.610;11.136;2023-08-08T04:30:01;9.07;;;2.50;;
15254;SDS011;7730;49.610;11.136;2023-08-08T04:32:29;3.90;;;2.28;;
15254;SDS011;7730;49.610;11.136;2023-08-08T04:34:57;5.10;;;2.20;;
15254;SDS011;7730;49.610;11.136;2023-08-08T04:37:24;3.83;;;2.30;;
15254;SDS011;7730;49.610;11.136;2023-08-08T04:39:51;5.80;;;2.60;;
15254;SDS011;7730;49.610;11.136;2023-08-08T04:42:18;4.82;;;2.70;;
15254;SDS011;7730;49.610;11.136;2023-08-08T04:44:45;5.22;;;2.70;;
15254;SDS011;7730;49.610;11.136;2023-08-08T04:47:12;4.78;;;2.40;;
15254;SDS011;7730;49.610;11.136;2023-08-08T04:49:39;6.13;;;2.50;;
15254;SDS011;7730;49.610;11.136;2023-08-08T04:52:08;6.25;;;2.60;;
15254;SDS011;7730;49.610;11.136;2023-08-08T04:54:35;4.85;;;2.42;;
15254;SDS011;7730;49.610;11.136;2023-08-08T04:57:02;4.72;;;2.22;;
15254;SDS011;7730;49.610;11.136;2023-08-08T04:59:29;6.93;;;2.40;;
15254;SDS011;7730;49.610;11.136;2023-08-08T05:01:56;5.13;;;2.20;;
15254;SDS011;7730;49.610;11.136;2023-08-08T05:04:23;3.30;;;2.00;;
15254;SDS011;7730;49.610;11.136;2023-08-08T05:06:50;4.40;;;2.10;;
15254;SDS011;7730;49.610;11.136;2023-08-08T05:09:18;5.28;;;1.98;;
15254;SDS011;7730;49.610;11.136;2023-08-08T05:11:45;5.55;;;2.22;;
15254;SDS011;7730;49.610;11.136;2023-08-08T05:14:12;5.25;;;2.10;;
15254;SDS011;7730;49.610;11.136;2023-08-08T05:16:39;4.20;;;1.90;;
15254;SDS011;7730;49.610;11.136;2023-08-08T05:19:06;3.17;;;1.90;;
15254;SDS011;7730;49.610;11.136;2023-08-08T05:21:34;4.38;;;2.00;;
15254;SDS011;7730;49.610;11.136;2023-08-08T05:24:01;4.75;;;2.30;;
15254;SDS011;7730;49.610;11.136;2023-08-08T05:26:29;5.43;;;2.10;;
15254;SDS011;7730;49.610;11.136;2023-08-08T05:28:56;5.57;;;2.20;;
15254;SDS011;7730;49.610;11.136;2023-08-08T05:31:23;5.03;;;2.40;;
15254;SDS011;7730;49.610;11.136;2023-08-08T05:33:50;5.57;;;2.30;;
15254;SDS011;7730;49.610;11.136;2023-08-08T05:36:17;3.75;;;2.17;;
15254;SDS011;7730;49.610;11.136;2023-08-08T05:38:44;5.30;;;2.10;;
15254;SDS011;7730;49.610;11.136;2023-08-08T05:41:11;4.38;;;2.45;;
15254;SDS011;7730;49.610;11.136;2023-08-08T05:43:40;5.53;;;2.42;;
15254;SDS011;7730;49.610;11.136;2023-08-08T05:46:07;5.78;;;2.03;;
15254;SDS011;7730;49.610;11.136;2023-08-08T05:48:34;5.95;;;2.05;;
15254;SDS011;7730;49.610;11.136;2023-08-08T05:51:01;5.53;;;2.13;;
15254;SDS011;7730;49.610;11.136;2023-08-08T05:53:30;5.32;;;2.10;;
15254;SDS011;7730;49.610;11.136;2023-08-08T05:55:57;4.07;;;2.03;;
15254;SDS011;7730;49.610;11.136;2023-08-08T05:58:24;5.28;;;2.05;;
15254;SDS011;7730;49.610;11.136;2023-08-08T06:00:52;6.15;;;2.20;;
15254;SDS011;7730;49.610;11.136;2023-08-08T06:03:19;5.97;;;2.30;;
15254;SDS011;7730;49.610;11.136;2023-08-08T06:05:46;4.55;;;2.08;;
15254;SDS011;7730;49.610;11.136;2023-08-08T06:08:14;4.38;;;2.13;;
15254;SDS011;7730;49.610;11.136;2023-08-08T06:10:41;5.47;;;2.15;;
15254;SDS011;7730;49.610;11.136;2023-08-08T06:13:08;6.18;;;2.10;;
15254;SDS011;7730;49.610;11.136;2023-08-08T06:15:35;4.60;;;2.22;;
15254;SDS011;7730;49.610;11.136;2023-08-08T06:18:04;5.63;;;2.20;;
15254;SDS011;7730;49.610;11.136;2023-08-08T06:20:31;3.28;;;2.15;;
15254;SDS011;7730;49.610;11.136;2023-08-08T06:22:58;4.75;;;2.60;;
15254;SDS011;7730;49.610;11.136;2023-08-08T06:25:25;4.85;;;2.03;;
15254;SDS011;7730;49.610;11.136;2023-08-08T06:27:53;3.92;;;2.00;;
15254;SDS011;7730;49.610;11.136;2023-08-08T06:30:20;3.70;;;1.88;;
15254;SDS011;7730;49.610;11.136;2023-08-08T06:32:47;4.35;;;1.90;;
15254;SDS011;7730;49.610;11.136;2023-08-08T06:35:15;8.88;;;2.33;;
15254;SDS011;7730;49.610;11.136;2023-08-08T06:37:43;5.53;;;2.30;;
15254;SDS011;7730;49.610;11.136;2023-08-08T06:40:10;4.93;;;2.10;;
15254;SDS011;7730;49.610;11.136;2023-08-08T06:42:37;5.90;;;2.10;;
15254;SDS011;7730;49.610;11.136;2023-08-08T06:45:05;5.13;;;2.28;;
15254;SDS011;7730;49.610;11.136;2023-08-08T06:47:32;5.57;;;2.00;;
15254;SDS011;7730;49.610;11.136;2023-08-08T06:49:59;3.42;;;2.00;;
15254;SDS011;7730;49.610;11.136;2023-08-08T06:52:28;4.00;;;2.03;;
15254;SDS011;7730;49.610;11.136;2023-08-08T06:54:55;4.95;;;2.10;;
15254;SDS011;7730;49.610;11.136;2023-08-08T06:57:22;4.55;;;2.20;;
15254;SDS011;7730;49.610;11.136;2023-08-08T06:59:49;5.05;;;1.92;;
15254;SDS011;7730;49.610;11.136;2023-08-08T07:02:18;3.55;;;1.90;;
15254;SDS011;7730;49.610;11.136;2023-08-08T07:04:46;7.03;;;2.45;;
15254;SDS011;7730;49.610;11.136;2023-08-08T07:07:13;5.60;;;2.10;;
15254;SDS011;7730;49.610;11.136;2023-08-08T07:09:41;3.97;;;1.90;;
15254;SDS011;7730;49.610;11.136;2023-08-08T07:12:08;5.22;;;2.17;;
15254;SDS011;7730;49.610;11.136;2023-08-08T07:14:35;5.88;;;2.22;;
15254;SDS011;7730;49.610;11.136;2023-08-08T07:17:02;4.70;;;1.90;;
15254;SDS011;7730;49.610;11.136;2023-08-08T07:19:30;3.60;;;2.00;;
15254;SDS011;7730;49.610;11.136;2023-08-08T07:21:57;4.25;;;2.17;;
15254;SDS011;7730;49.610;11.136;2023-08-08T07:24:24;5.68;;;2.10;;
15254;SDS011;7730;49.610;11.136;2023-08-08T07:26:55;3.65;;;2.05;;
15254;SDS011;7730;49.610;11.136;2023-08-08T07:29:22;4.72;;;2.10;;
15254;SDS011;7730;49.610;11.136;2023-08-08T07:31:49;4.50;;;2.10;;
15254;SDS011;7730;49.610;11.136;2023-08-08T07:34:16;4.70;;;2.00;;
15254;SDS011;7730;49.610;11.136;2023-08-08T07:36:43;2.75;;;1.85;;
15254;SDS011;7730;49.610;11.136;2023-08-08T07:39:10;4.45;;;1.90;;
15254;SDS011;7730;49.610;11.136;2023-08-08T07:41:37;6.20;;;2.05;;
15254;SDS011;7730;49.610;11.136;2023-08-08T07:44:05;5.03;;;1.80;;
15254;SDS011;7730;49.610;11.136;2023-08-08T07:46:32;3.47;;;1.95;;
15254;SDS011;7730;49.610;11.136;2023-08-08T07:48:59;4.10;;;1.70;;
15254;SDS011;7730;49.610;11.136;2023-08-08T07:51:28;6.03;;;1.90;;
15254;SDS011;7730;49.610;11.136;2023-08-08T07:53:56;3.97;;;1.70;;
15254;SDS011;7730;49.610;11.136;2023-08-08T07:56:23;3.35;;;1.80;;
15254;SDS011;7730;49.610;11.136;2023-08-08T07:58:50;3.80;;;1.50;;
15254;SDS011;7730;49.610;11.136;2023-08-08T08:01:18;2.97;;;1.60;;
15254;SDS011;7730;49.610;11.136;2023-08-08T08:03:45;7.53;;;1.92;;
15254;SDS011;7730;49.610;11.136;2023-08-08T08:06:12;6.13;;;1.77;;
15254;SDS011;7730;49.610;11.136;2023-08-08T08:08:39;3.22;;;1.80;;
15254;SDS011;7730;49.610;11.136;2023-08-08T08:11:07;5.00;;;1.90;;
15254;SDS011;7730;49.610;11.136;2023-08-08T08:13:34;4.97;;;1.77;;
15254;SDS011;7730;49.610;11.136;2023-08-08T08:16:01;3.65;;;1.75;;
15254;SDS011;7730;49.610;11.136;2023-08-08T08:18:30;3.63;;;1.65;;
15254;SDS011;7730;49.610;11.136;2023-08-08T08:20:58;5.82;;;1.70;;
15254;SDS011;7730;49.610;11.136;2023-08-08T08:23:25;3.17;;;1.60;;
15254;SDS011;7730;49.610;11.136;2023-08-08T08:25:52;4.38;;;1.60;;
15254;SDS011;7730;49.610;11.136;2023-08-08T08:28:20;2.97;;;1.48;;
15254;SDS011;7730;49.610;11.136;2023-08-08T08:30:47;2.63;;;1.40;;
15254;SDS011;7730;49.610;11.136;2023-08-08T08:33:15;4.70;;;1.80;;
15254;SDS011;7730;49.610;11.136;2023-08-08T08:35:43;6.78;;;1.75;;
15254;SDS011;7730;49.610;11.136;2023-08-08T08:38:11;3.38;;;1.60;;
15254;SDS011;7730;49.610;11.136;2023-08-08T08:40:39;6.07;;;1.63;;
15254;SDS011;7730;49.610;11.136;2023-08-08T08:43:07;5.45;;;1.70;;
15254;SDS011;7730;49.610;11.136;2023-08-08T08:45:36;7.85;;;1.40;;
15254;SDS011;7730;49.610;11.136;2023-08-08T08:48:04;4.35;;;1.70;;
15254;SDS011;7730;49.610;11.136;2023-08-08T08:50:33;3.45;;;1.70;;
15254;SDS011;7730;49.610;11.136;2023-08-08T08:53:02;2.33;;;1.33;;
15254;SDS011;7730;49.610;11.136;2023-08-08T08:55:30;4.32;;;1.70;;
15254;SDS011;7730;49.610;11.136;2023-08-08T08:57:57;2.53;;;1.50;;
15254;SDS011;7730;49.610;11.136;2023-08-08T09:00:24;3.47;;;1.60;;
15254;SDS011;7730;49.610;11.136;2023-08-08T09:02:51;5.57;;;1.50;;
15254;SDS011;7730;49.610;11.136;2023-08-08T09:05:20;5.85;;;1.60;;
15254;SDS011;7730;49.610;11.136;2023-08-08T09:07:47;2.42;;;1.33;;
15254;SDS011;7730;49.610;11.136;2023-08-08T09:10:17;9.75;;;1.73;;
15254;SDS011;7730;49.610;11.136;2023-08-08T09:12:45;4.68;;;1.80;;
15254;SDS011;7730;49.610;11.136;2023-08-08T09:15:12;3.95;;;1.58;;
15254;SDS011;7730;49.610;11.136;2023-08-08T09:17:40;4.47;;;1.70;;
15254;SDS011;7730;49.610;11.136;2023-08-08T09:20:08;2.95;;;1.50;;
15254;SDS011;7730;49.610;11.136;2023-08-08T09:22:36;6.15;;;1.55;;
15254;SDS011;7730;49.610;11.136;2023-08-08T09:25:03;4.85;;;1.60;;
15254;SDS011;7730;49.610;11.136;2023-08-08T09:27:32;8.68;;;1.55;;
15254;SDS011;7730;49.610;11.136;2023-08-08T09:29:59;4.22;;;1.60;;
15254;SDS011;7730;49.610;11.136;2023-08-08T09:32:28;4.70;;;1.45;;
15254;SDS011;7730;49.610;11.136;2023-08-08T09:34:56;2.58;;;1.30;;
15254;SDS011;7730;49.610;11.136;2023-08-08T09:37:23;2.55;;;1.45;;
15254;SDS011;7730;49.610;11.136;2023-08-08T09:39:55;2.95;;;1.30;;
15254;SDS011;7730;49.610;11.136;2023-08-08T09:42:23;4.22;;;1.35;;
15254;SDS011;7730;49.610;11.136;2023-08-08T09:44:51;2.95;;;1.40;;
15254;SDS011;7730;49.610;11.136;2023-08-08T09:47:20;3.85;;;1.48;;
15254;SDS011;7730;49.610;11.136;2023-08-08T09:49:48;2.97;;;1.25;;
15254;SDS011;7730;49.610;11.136;2023-08-08T09:52:15;4.95;;;2.40;;
15254;SDS011;7730;49.610;11.136;2023-08-08T09:54:42;3.60;;;1.60;;
15254;SDS011;7730;49.610;11.136;2023-08-08T09:57:09;4.78;;;1.38;;
15254;SDS011;7730;49.610;11.136;2023-08-08T09:59:36;5.80;;;1.60;;
15254;SDS011;7730;49.610;11.136;2023-08-08T10:02:05;5.30;;;1.90;;
15254;SDS011;7730;49.610;11.136;2023-08-08T10:04:35;5.30;;;1.60;;
15254;SDS011;7730;49.610;11.136;2023-08-08T10:07:02;5.30;;;1.70;;
15254;SDS011;7730;49.610;11.136;2023-08-08T10:09:29;3.78;;;1.55;;
15254;SDS011;7730;49.610;11.136;2023-08-08T10:11:58;1.80;;;1.30;;
15254;SDS011;7730;49.610;11.136;2023-08-08T10:14:28;4.13;;;1.40;;
15254;SDS011;7730;49.610;11.136;2023-08-08T10:16:56;5.25;;;1.52;;
15254;SDS011;7730;49.610;11.136;2023-08-08T10:19:24;13.32;;;1.80;;
15254;SDS011;7730;49.610;11.136;2023-08-08T10:21:56;2.28;;;1.33;;
15254;SDS011;7730;49.610;11.136;2023-08-08T10:24:23;3.50;;;1.50;;
15254;SDS011;7730;49.610;11.136;2023-08-08T10:26:50;4.57;;;1.70;;
15254;SDS011;7730;49.610;11.136;2023-08-08T10:29:18;3.35;;;1.45;;
15254;SDS011;7730;49.610;11.136;2023-08-08T10:31:50;3.08;;;1.40;;
15254;SDS011;7730;49.610;11.136;2023-08-08T10:34:19;3.00;;;1.30;;
15254;SDS011;7730;49.610;11.136;2023-08-08T10:36:51;3.63;;;1.42;;
15254;SDS011;7730;49.610;11.136;2023-08-08T10:39:18;4.60;;;1.90;;
15254;SDS011;7730;49.610;11.136;2023-08-08T10:41:47;7.65;;;1.90;;
15254;SDS011;7730;49.610;11.136;2023-08-08T10:44:20;3.13;;;1.60;;
15254;SDS011;7730;49.610;11.136;2023-08-08T10:46:48;4.00;;;1.60;;
15254;SDS011;7730;49.610;11.136;2023-08-08T10:49:15;2.67;;;1.40;;
15254;SDS011;7730;49.610;11.136;2023-08-08T10:51:44;3.53;;;1.77;;
15254;SDS011;7730;49.610;11.136;2023-08-08T10:54:13;3.42;;;1.63;;
15254;SDS011;7730;49.610;11.136;2023-08-08T10:56:41;2.70;;;1.50;;
15254;SDS011;7730;49.610;11.136;2023-08-08T10:59:14;5.10;;;1.70;;
15254;SDS011;7730;49.610;11.136;2023-08-08T11:01:42;3.53;;;1.60;;
15254;SDS011;7730;49.610;11.136;2023-08-08T11:04:11;5.18;;;1.70;;
15254;SDS011;7730;49.610;11.136;2023-08-08T11:06:39;4.68;;;1.40;;
15254;SDS011;7730;49.610;11.136;2023-08-08T11:09:06;5.78;;;1.70;;
15254;SDS011;7730;49.610;11.136;2023-08-08T11:11:37;3.10;;;1.50;;
15254;SDS011;7730;49.610;11.136;2023-08-08T11:14:11;1.90;;;1.40;;
15254;SDS011;7730;49.610;11.136;2023-08-08T11:16:39;5.13;;;1.55;;
15254;SDS011;7730;49.610;11.136;2023-08-08T11:19:06;4.65;;;1.58;;
15254;SDS011;7730;49.610;11.136;2023-08-08T11:21:33;2.92;;;1.40;;
15254;SDS011;7730;49.610;11.136;2023-08-08T11:24:01;3.60;;;1.45;;
15254;SDS011;7730;49.610;11.136;2023-08-08T11:26:28;4.88;;;1.83;;
15254;SDS011;7730;49.610;11.136;2023-08-08T11:28:58;5.25;;;1.63;;
15254;SDS011;7730;49.610;11.136;2023-08-08T11:31:25;4.30;;;1.80;;
15254;SDS011;7730;49.610;11.136;2023-08-08T11:33:53;6.00;;;1.58;;
15254;SDS011;7730;49.610;11.136;2023-08-08T11:36:20;3.35;;;1.70;;
15254;SDS011;7730;49.610;11.136;2023-08-08T11:38:48;4.25;;;1.60;;
15254;SDS011;7730;49.610;11.136;2023-08-08T11:41:16;3.85;;;1.50;;
15254;SDS011;7730;49.610;11.136;2023-08-08T11:43:44;4.00;;;1.58;;
15254;SDS011;7730;49.610;11.136;2023-08-08T11:46:13;3.08;;;1.55;;
15254;SDS011;7730;49.610;11.136;2023-08-08T11:48:41;5.47;;;1.65;;
15254;SDS011;7730;49.610;11.136;2023-08-08T11:51:08;2.17;;;1.33;;
15254;SDS011;7730;49.610;11.136;2023-08-08T11:53:35;3.33;;;1.40;;
15254;SDS011;7730;49.610;11.136;2023-08-08T11:56:02;3.78;;;1.70;;
15254;SDS011;7730;49.610;11.136;2023-08-08T11:58:31;3.13;;;1.45;;
15254;SDS011;7730;49.610;11.136;2023-08-08T12:00:58;3.45;;;1.70;;
15254;SDS011;7730;49.610;11.136;2023-08-08T12:03:27;2.65;;;1.42;;
15254;SDS011;7730;49.610;11.136;2023-08-08T12:05:54;2.38;;;1.30;;
15254;SDS011;7730;49.610;11.136;2023-08-08T12:08:21;2.30;;;1.50;;
15254;SDS011;7730;49.610;11.136;2023-08-08T12:10:51;4.13;;;1.52;;
15254;SDS011;7730;49.610;11.136;2023-08-08T12:13:19;2.35;;;1.52;;
15254;SDS011;7730;49.610;11.136;2023-08-08T12:15:47;4.32;;;1.60;;
15254;SDS011;7730;49.610;11.136;2023-08-08T12:18:16;4.10;;;1.70;;
15254;SDS011;7730;49.610;11.136;2023-08-08T12:20:44;4.53;;;1.60;;
15254;SDS011;7730;49.610;11.136;2023-08-08T12:23:12;3.88;;;1.75;;
15254;SDS011;7730;49.610;11.136;2023-08-08T12:25:42;3.75;;;1.50;;
15254;SDS011;7730;49.610;11.136;2023-08-08T12:28:09;3.13;;;1.38;;
15254;SDS011;7730;49.610;11.136;2023-08-08T12:30:36;4.57;;;1.58;;
15254;SDS011;7730;49.610;11.136;2023-08-08T12:33:03;3.42;;;1.45;;
15254;SDS011;7730;49.610;11.136;2023-08-08T12:35:30;4.85;;;1.58;;
15254;SDS011;7730;49.610;11.136;2023-08-08T12:37:59;5.55;;;1.67;;
15254;SDS011;7730;49.610;11.136;2023-08-08T14:35:18;5.68;;;1.60;;
15254;SDS011;7730;49.610;11.136;2023-08-08T14:37:55;5.22;;;1.65;;
15254;SDS011;7730;49.610;11.136;2023-08-08T14:40:22;3.15;;;1.70;;
15254;SDS011;7730;49.610;11.136;2023-08-08T14:42:49;3.95;;;1.70;;
15254;SDS011;7730;49.610;11.136;2023-08-08T14:45:23;4.25;;;1.58;;
15254;SDS011;7730;49.610;11.136;2023-08-08T14:47:51;4.07;;;1.60;;
15254;SDS011;7730;49.610;11.136;2023-08-08T14:50:20;4.05;;;1.40;;
15254;SDS011;7730;49.610;11.136;2023-08-08T14:52:47;7.22;;;1.85;;
15254;SDS011;7730;49.610;11.136;2023-08-08T14:55:14;2.55;;;1.60;;
15254;SDS011;7730;49.610;11.136;2023-08-08T14:57:41;7.50;;;1.60;;
15254;SDS011;7730;49.610;11.136;2023-08-08T15:00:08;5.20;;;1.83;;
15254;SDS011;7730;49.610;11.136;2023-08-08T15:02:38;3.25;;;1.70;;
15254;SDS011;7730;49.610;11.136;2023-08-08T15:05:06;5.45;;;2.17;;
15254;SDS011;7730;49.610;11.136;2023-08-08T15:07:34;3.28;;;1.55;;
15254;SDS011;7730;49.610;11.136;2023-08-08T15:12:30;6.18;;;1.73;;
15254;SDS011;7730;49.610;11.136;2023-08-08T15:14:57;4.75;;;1.80;;
15254;SDS011;7730;49.610;11.136;2023-08-08T15:17:24;5.20;;;2.00;;
15254;SDS011;7730;49.610;11.136;2023-08-08T15:19:51;4.13;;;1.65;;
15254;SDS011;7730;49.610;11.136;2023-08-08T15:22:18;3.20;;;1.70;;
15254;SDS011;7730;49.610;11.136;2023-08-08T15:24:46;3.00;;;1.60;;
15254;SDS011;7730;49.610;11.136;2023-08-08T15:27:13;2.28;;;1.50;;
15254;SDS011;7730;49.610;11.136;2023-08-08T15:29:40;3.85;;;1.63;;
15254;SDS011;7730;49.610;11.136;2023-08-08T15:32:07;3.88;;;1.70;;
15254;SDS011;7730;49.610;11.136;2023-08-08T15:34:36;4.72;;;1.73;;
15254;SDS011;7730;49.610;11.136;2023-08-08T15:37:03;5.32;;;1.60;;
15254;SDS011;7730;49.610;11.136;2023-08-08T15:39:30;3.75;;;1.45;;
15254;SDS011;7730;49.610;11.136;2023-08-08T15:41:58;6.25;;;1.70;;
15254;SDS011;7730;49.610;11.136;2023-08-08T15:44:25;4.03;;;1.70;;
15254;SDS011;7730;49.610;11.136;2023-08-08T15:46:53;4.85;;;1.80;;
15254;SDS011;7730;49.610;11.136;2023-08-08T15:49:20;5.40;;;2.10;;
15254;SDS011;7730;49.610;11.136;2023-08-08T15:51:47;3.22;;;1.60;;
15254;SDS011;7730;49.610;11.136;2023-08-08T15:54:14;3.67;;;1.70;;
15254;SDS011;7730;49.610;11.136;2023-08-08T15:56:42;2.83;;;1.67;;
15254;SDS011;7730;49.610;11.136;2023-08-08T15:59:10;5.65;;;1.70;;
15254;SDS011;7730;49.610;11.136;2023-08-08T16:01:37;4.07;;;1.67;;
15254;SDS011;7730;49.610;11.136;2023-08-08T16:04:04;7.30;;;2.25;;
15254;SDS011;7730;49.610;11.136;2023-08-08T16:06:31;4.25;;;1.63;;
15254;SDS011;7730;49.610;11.136;2023-08-08T16:08:59;3.65;;;1.73;;
15254;SDS011;7730;49.610;11.136;2023-08-08T16:11:28;4.65;;;2.00;;
15254;SDS011;7730;49.610;11.136;2023-08-08T16:13:55;5.30;;;1.75;;
15254;SDS011;7730;49.610;11.136;2023-08-08T16:16:24;5.70;;;2.17;;
15254;SDS011;7730;49.610;11.136;2023-08-08T16:18:52;7.72;;;2.20;;
15254;SDS011;7730;49.610;11.136;2023-08-08T16:21:18;3.22;;;1.70;;
15254;SDS011;7730;49.610;11.136;2023-08-08T16:23:46;5.03;;;2.20;;
15254;SDS011;7730;49.610;11.136;2023-08-08T16:26:12;4.78;;;2.00;;
15254;SDS011;7730;49.610;11.136;2023-08-08T16:28:40;6.03;;;2.38;;
15254;SDS011;7730;49.610;11.136;2023-08-08T16:31:07;3.60;;;1.40;;
15254;SDS011;7730;49.610;11.136;2023-08-08T16:33:36;3.47;;;1.63;;
15254;SDS011;7730;49.610;11.136;2023-08-08T16:36:03;3.97;;;1.70;;
15254;SDS011;7730;49.610;11.136;2023-08-08T16:38:32;5.63;;;1.58;;
15254;SDS011;7730;49.610;11.136;2023-08-08T16:41:01;4.47;;;1.80;;
15254;SDS011;7730;49.610;11.136;2023-08-08T16:43:28;4.40;;;1.98;;
15254;SDS011;7730;49.610;11.136;2023-08-08T16:45:56;2.75;;;1.50;;
15254;SDS011;7730;49.610;11.136;2023-08-08T16:48:23;4.28;;;1.67;;